Terminal Aerodrome Forecast
Issued by NWS Charleston, WV

Home | Current Version | Previous Version | Text Only | Print | Product List | Glossary On
Versions: 1 2 3 4 5 6 7 8 9 10 11 12 13 14 15 16 17 18 19 20 21 22 23 24 25 26
000
FTUS41 KRLX 050553
TAFPKB
TAF
KPKB 050553Z 0506/0606 VRB03KT 6SM BR BKN200
     FM050800 VRB03KT 3SM BR SCT001
     FM050900 VRB03KT 1/4SM FG VV001
     FM051300 17004KT 3SM BR BKN002
     FM051400 17004KT P6SM BKN200
     FM051900 VRB03KT P6SM BKN040
     FM060200 00000KT P6SM SCT080
     FM060500 00000KT 3SM BR SCT080=

USA.gov is the U.S. government's official web portal to all federal, state and local government web resources and services.